Participated 1 time
in 1980
Jean Toso, France
Tour de France 2026 starts from Barcelona, Spain in

Stats and Facts from
Tour de France.

2026   2025   2024   2023  2022  2021  2020  2019   2018  2017   2016   2015  2014  2013   2012   2011  2010   2009   2008   2007   2006   2005   2004   2003   2002   2001   2000   1999   1998   1997  1996   1995   1994   1993   1992  1991   1990   1989   1988   1987   1986   1985   1984   1983  1982  1981   1980   1979  1978  1977   1976  1975  1974  1973   1972   1971   1970  1969   1968   1967   1966   1965  1964  1963   1962   1961   1960   1959   1958   1957  1956   1955   1954   1953   1952  1951  1950  1949   1948  1947  1939   1938   1937   1936   1935   1934   1933  1932   1931   1930  1929   1928   1927   1926  1925  1924  1923   1922   1921   1920   1919  1914   1913   1912   1911   1910  1909   1908   1907   1906  1905  1904   1903 

Tourstats
Sitemap

After stage 21 - 2025:
 16451 starters.
  5463 different riders.
  689 teams.
  2398 stages.
  470 restdays.
  466506.50 km.
  5925 abandoned riders.

Click map for 2016 route.
Facts from Tour de France 2016
  |   Stages.  |   Stage winners.  |   Days in jerseys.  |   Teams.  |   All riders.  |   All riders by age.  |   All riders from.  |  

  |   Rookies.  |   Withdrawls.  |   Average speed.  |   GC.  |   Polka  |   Green  |   White  |   Summits. (In tour)  |   Miscellaneous.  |  

Stage 12 on July 14th. 2016
Pick a stage:  1  2  3  4  5  6  7  8  9  10  11  12  13  14  15  16  17  18  19  20  21  

After stage 12:    Chris Froome    Thomas De Gendt    Peter Sagan    Adam Yates  
  MontpellierMont-Ventoux | Dist: 184.00km. | Winner: Thomas De Gendt

Podium
4  Côte de Gordes Thomas De Gendtafter131.50 km.

3  Col des Trois Termes Thomas De Gendtafter135.50 km.

HC  Mont Ventoux Thomas De Gendtafter184.00 km.


Average speed for all riders in stage:  37,791 km./hr.

1
 Thomas De Gendt  Lotto Soudal04h 31' 51"=40,611  km/h

2
 Serge Pauwels  Dimension Data04h 31' 53"+  00:00:02 =40,606  km/h

3
 Daniel Navarro  Cofidis – Solutions Crédits04h 32' 05"+  00:00:14 =40,576  km/h

4  Stef Clement  IAM Cycling04h 32' 31"+  00:00:40 =40,511  km/h

5  Sylvain Chavanel  Direct Energie04h 32' 31"+  00:00:40 =40,511  km/h

6  Bert-Jan Lindeman  Lotto NL-Jumbo04h 34' 43"+  00:02:52 =40,187  km/h

7  Daniel Teklehaimanot  Dimension Data04h 35' 04"+  00:03:13 =40,136  km/h

8  Sep Vanmarcke  Lotto NL-Jumbo04h 35' 17"+  00:03:26 =40,104  km/h

9  Chris Anker Sørensen  Fortuneo-Vital Concept04h 36' 14"+  00:04:23 =39,966  km/h

10  Bauke Mollema  Trek-Segafredo04h 36' 56"+  00:05:05 =39,865  km/h

19  Richie Porte  BMC04h 36' 56"+  00:05:05 =39,865  km/h

11  Adam Yates  ORICA BikeExchange04h 37' 15"+  00:05:24 =39,820  km/h

12  Fabio Aru  Astana Pro Team04h 37' 15"+  00:05:24 =39,820  km/h

13  Louis Meintjes  Lampre-Merida04h 37' 15"+  00:05:24 =39,820  km/h

14  Romain Bardet  AG2R La Mondiale04h 37' 15"+  00:05:24 =39,820  km/h

15  Joaquin Rodriguez  Katusha04h 37' 15"+  00:05:24 =39,820  km/h

16  Alejandro Valverde  Movistar04h 37' 15"+  00:05:24 =39,820  km/h

17  Nairo Quintana  Movistar04h 37' 15"+  00:05:24 =39,820  km/h

18  Tejay Van Garderen  BMC04h 37' 15"+  00:05:24 =39,820  km/h

20  Dan Martin  Etixx-Quick Step04h 38' 21"+  00:06:30 =39,662  km/h

21  Sébastien Reichenbach  FDJ04h 38' 21"+  00:06:30 =39,662  km/h

22  Warren Barguil  Giant-Alpecin04h 38' 21"+  00:06:30 =39,662  km/h

23  Daniel Moreno  Movistar04h 38' 21"+  00:06:30 =39,662  km/h

24  Sergio Henao  Sky Procycling04h 38' 36"+  00:06:45 =39,627  km/h

25  Chris Froome  Sky Procycling04h 38' 36"+  00:06:45 =39,627  km/h

26  Roman Kreuziger  Tinkoff04h 38' 42"+  00:06:51 =39,612  km/h

27  Pierre Rolland  Cannondale Pro Cycling04h 39' 15"+  00:07:24 =39,534  km/h

28  Geraint Thomas  Sky Procycling04h 39' 15"+  00:07:24 =39,534  km/h

29  Ilnur Zakarin  Katusha04h 39' 15"+  00:07:24 =39,534  km/h

30  Wout Poels  Sky Procycling04h 39' 18"+  00:07:27 =39,527  km/h

31  Mikel Nieve  Sky Procycling04h 39' 45"+  00:07:54 =39,464  km/h

32  Iljo Keisse  Etixx-Quick Step04h 39' 45"+  00:07:54 =39,464  km/h

33  André Greipel  Lotto Soudal04h 41' 21"+  00:09:30 =39,239  km/h

34  Haimar  Zubeldía  Trek-Segafredo04h 41' 21"+  00:09:30 =39,239  km/h

35  Damiano Caruso  BMC04h 41' 21"+  00:09:30 =39,239  km/h

36  Alexis Vuillermoz  AG2R La Mondiale04h 41' 21"+  00:09:30 =39,239  km/h

37  Emanuel Buchmann  Bora-Argon 1804h 41' 21"+  00:09:30 =39,239  km/h

38  Luis Angel Mate  Cofidis – Solutions Crédits04h 41' 21"+  00:09:30 =39,239  km/h

39  Tanel Kangert  Astana Pro Team04h 41' 21"+  00:09:30 =39,239  km/h

40  Jarlinson Pantano  IAM Cycling04h 41' 21"+  00:09:30 =39,239  km/h

48  Florian Vachon  Fortuneo-Vital Concept04h 41' 21"+  00:09:30 =39,239  km/h

49  Adam Hansen  Lotto Soudal04h 41' 21"+  00:09:30 =39,239  km/h

50  Martin Elmiger  IAM Cycling04h 41' 21"+  00:09:30 =39,239  km/h

51  Tsgabu Grmay  Lampre-Merida04h 41' 21"+  00:09:30 =39,239  km/h

52  Bartosz Huzarski  Bora-Argon 1804h 41' 21"+  00:09:30 =39,239  km/h

41  Cyril Lemoine  Cofidis – Solutions Crédits04h 41' 56"+  00:10:05 =39,158  km/h

42  Fränk Schleck  Trek-Segafredo04h 43' 32"+  00:11:41 =38,937  km/h

43  Anthony Delaplace  Fortuneo-Vital Concept04h 44' 04"+  00:12:13 =38,864  km/h

44  Mikel Landa  Sky Procycling04h 44' 20"+  00:12:29 =38,828  km/h

45  Patrick Konrad  Bora-Argon 1804h 45' 31"+  00:13:40 =38,667  km/h

46  Jérémy Roy  FDJ04h 46' 02"+  00:14:11 =38,597  km/h

47  Amaël Moinard  BMC04h 46' 02"+  00:14:11 =38,597  km/h

53  Jan Bakelants  AG2R La Mondiale04h 47' 16"+  00:15:25 =38,431  km/h

54  Paolo Tiralongo  Astana Pro Team04h 47' 18"+  00:15:27 =38,427  km/h

55  Luis León Sánchez  Astana Pro Team04h 47' 18"+  00:15:27 =38,427  km/h

56  Mikaël Cherel  AG2R La Mondiale04h 48' 18"+  00:16:27 =38,293  km/h

57  Daryl Impey  ORICA BikeExchange04h 50' 23"+  00:18:32 =38,019  km/h

58  Rubén Plaza  ORICA BikeExchange04h 50' 23"+  00:18:32 =38,019  km/h

59  Anthony Roux  FDJ04h 51' 35"+  00:19:44 =37,862  km/h

60  Ben Gastauer  AG2R La Mondiale04h 51' 35"+  00:19:44 =37,862  km/h

61  Cyril Gautier  AG2R La Mondiale04h 51' 35"+  00:19:44 =37,862  km/h

62  Peter Stetina  Trek-Segafredo04h 51' 35"+  00:19:44 =37,862  km/h

63  Michael Schär  BMC04h 53' 17"+  00:21:26 =37,643  km/h

64  Jasper Stuyven  Trek-Segafredo04h 53' 17"+  00:21:26 =37,643  km/h

65  Julien Vermote  Etixx-Quick Step04h 53' 17"+  00:21:26 =37,643  km/h

66  Marcus Burghardt  BMC04h 53' 17"+  00:21:26 =37,643  km/h

67  Dylan Van Baarle  Cannondale Pro Cycling04h 53' 17"+  00:21:26 =37,643  km/h

68  Antoine Duchesne  Direct Energie04h 53' 17"+  00:21:26 =37,643  km/h

69  Jakob Fuglsang  Astana Pro Team04h 53' 17"+  00:21:26 =37,643  km/h

70  Geoffrey Soupe  Cofidis – Solutions Crédits04h 53' 17"+  00:21:26 =37,643  km/h

71  Alberto Losada  Katusha04h 53' 17"+  00:21:26 =37,643  km/h

72  Pierre-Luc Périchon  Fortuneo-Vital Concept04h 53' 17"+  00:21:26 =37,643  km/h

73  Tom Dumoulin  Giant-Alpecin04h 53' 17"+  00:21:26 =37,643  km/h

74  Edward Theuns  Trek-Segafredo04h 53' 17"+  00:21:26 =37,643  km/h

75  Oliver Naesen  IAM Cycling04h 53' 17"+  00:21:26 =37,643  km/h

76  Greg Van Avermaet  BMC04h 53' 17"+  00:21:26 =37,643  km/h

77  Petr Vakoč  Etixx-Quick Step04h 53' 17"+  00:21:26 =37,643  km/h

78  Matteo Bono  Lampre-Merida04h 53' 17"+  00:21:26 =37,643  km/h

79  Kristijan Ðurasek  Lampre-Merida04h 53' 17"+  00:21:26 =37,643  km/h

80  Georg Preidler  Giant-Alpecin04h 53' 17"+  00:21:26 =37,643  km/h

81  Paul Voss  Bora-Argon 1804h 53' 17"+  00:21:26 =37,643  km/h

82  Reinardt Janse Van Rensburg  Dimension Data04h 53' 17"+  00:21:26 =37,643  km/h

83  Alexey Lutsenko  Astana Pro Team04h 55' 28"+  00:23:37 =37,365  km/h

84  Andriy Grivko  Astana Pro Team04h 55' 28"+  00:23:37 =37,365  km/h

85  Jesus Herrada  Movistar04h 55' 28"+  00:23:37 =37,365  km/h

86  Markel Irizar  Trek-Segafredo04h 55' 28"+  00:23:37 =37,365  km/h

87  Nelson Oliveira  Movistar04h 55' 28"+  00:23:37 =37,365  km/h

88  Ramūnas Navardauskas  Cannondale Pro Cycling04h 55' 28"+  00:23:37 =37,365  km/h

89  Fabian Cancellara  Trek-Segafredo04h 55' 28"+  00:23:37 =37,365  km/h

90  Michael Valgren  Tinkoff04h 55' 28"+  00:23:37 =37,365  km/h

91  Imanol Erviti  Movistar04h 55' 28"+  00:23:37 =37,365  km/h

92  Vasil Kiryienka  Sky Procycling04h 55' 28"+  00:23:37 =37,365  km/h

93  Bryan Coquard  Direct Energie04h 55' 28"+  00:23:37 =37,365  km/h

94  Borut Božič  Cofidis – Solutions Crédits04h 55' 28"+  00:23:37 =37,365  km/h

95  Julian Alaphilippe  Etixx-Quick Step04h 55' 28"+  00:23:37 =37,365  km/h

96  Luke Durbridge  ORICA BikeExchange04h 55' 28"+  00:23:37 =37,365  km/h

97  Matti Breschel  Cannondale Pro Cycling04h 55' 28"+  00:23:37 =37,365  km/h

98  Brice Feillu  Fortuneo-Vital Concept04h 56' 32"+  00:24:41 =37,230  km/h

99  Robert Kišerlovski  Tinkoff04h 57' 16"+  00:25:25 =37,138  km/h

100  Diego Rosa  Astana Pro Team04h 57' 16"+  00:25:25 =37,138  km/h

101  Rafał Majka  Tinkoff04h 57' 16"+  00:25:25 =37,138  km/h

102  Reto Hollenstein  IAM Cycling04h 57' 16"+  00:25:25 =37,138  km/h

103  Vincenzo Nibali  Astana Pro Team04h 57' 16"+  00:25:25 =37,138  km/h

104  Thomas  Voeckler  Direct Energie04h 57' 16"+  00:25:25 =37,138  km/h

105  Timo Roosen  Lotto NL-Jumbo04h 57' 16"+  00:25:25 =37,138  km/h

106  Ángel Vicioso  Katusha04h 57' 16"+  00:25:25 =37,138  km/h

107  Domenico Pozzovivo  AG2R La Mondiale04h 57' 16"+  00:25:25 =37,138  km/h

108  Fabrice Jeandesboz  Direct Energie04h 57' 16"+  00:25:25 =37,138  km/h

109  Wilco Kelderman  Lotto NL-Jumbo04h 57' 16"+  00:25:25 =37,138  km/h

110  Tom-Jelte Slagter  Cannondale Pro Cycling04h 57' 16"+  00:25:25 =37,138  km/h

111  Romain Sicard  Direct Energie04h 57' 16"+  00:25:25 =37,138  km/h

112  Luka Pibernik  Lampre-Merida04h 57' 16"+  00:25:25 =37,138  km/h

113  Winner Anacona  Movistar04h 57' 16"+  00:25:25 =37,138  km/h

114  Arnold Jeannesson  Cofidis – Solutions Crédits04h 57' 16"+  00:25:25 =37,138  km/h

115  Paul Martens  Lotto NL-Jumbo04h 57' 16"+  00:25:25 =37,138  km/h

116  Gregory Rast  Trek-Segafredo04h 57' 16"+  00:25:25 =37,138  km/h

117  Mathew Hayman  ORICA BikeExchange04h 57' 16"+  00:25:25 =37,138  km/h

118  Arthur Vichot  FDJ04h 57' 16"+  00:25:25 =37,138  km/h

119  Gregory Henderson  Lotto Soudal04h 57' 16"+  00:25:25 =37,138  km/h

120  Jens Debusschere  Lotto Soudal04h 57' 16"+  00:25:25 =37,138  km/h

121  Tony Martin  Etixx-Quick Step04h 57' 16"+  00:25:25 =37,138  km/h

122  George Bennett  Lotto NL-Jumbo04h 57' 16"+  00:25:25 =37,138  km/h

123  Brent Bookwalter  BMC04h 57' 16"+  00:25:25 =37,138  km/h

124  Jan Bárta  Bora-Argon 1804h 57' 16"+  00:25:25 =37,138  km/h

125  Jérôme Coppel  IAM Cycling04h 57' 16"+  00:25:25 =37,138  km/h

126  Steve Morabito  FDJ04h 57' 16"+  00:25:25 =37,138  km/h

127  Tony Gallopin  Lotto Soudal04h 57' 16"+  00:25:25 =37,138  km/h

128  Eduardo Sepulveda  Fortuneo-Vital Concept04h 57' 16"+  00:25:25 =37,138  km/h

129  Mathias Frank  IAM Cycling04h 57' 16"+  00:25:25 =37,138  km/h

130  Alexis Gougeard  AG2R La Mondiale04h 57' 16"+  00:25:25 =37,138  km/h

131  Rui Costa  Lampre-Merida04h 57' 16"+  00:25:25 =37,138  km/h

132  Stephen Cummings  Dimension Data04h 57' 16"+  00:25:25 =37,138  km/h

133  Marco Haller  Katusha04h 57' 16"+  00:25:25 =37,138  km/h

134  Jérôme Cousin  Cofidis – Solutions Crédits04h 57' 16"+  00:25:25 =37,138  km/h

135  Christopher Juul Jensen  ORICA BikeExchange04h 57' 16"+  00:25:25 =37,138  km/h

136  Lawson Craddock  Cannondale Pro Cycling04h 57' 48"+  00:25:57 =37,072  km/h

137  Rohan Dennis  BMC04h 57' 48"+  00:25:57 =37,072  km/h

138  Luke Rowe  Sky Procycling04h 57' 48"+  00:25:57 =37,072  km/h

139  Christophe Laporte  Cofidis – Solutions Crédits04h 57' 54"+  00:26:03 =37,059  km/h

140  Gorka Izagirre  Movistar04h 59' 40"+  00:27:49 =36,841  km/h

141  Ion Izagirre  Movistar04h 59' 40"+  00:27:49 =36,841  km/h

142  Peter Sagan  Tinkoff04h 59' 51"+  00:28:00 =36,818  km/h

143  Mark Cavendish  Dimension Data04h 59' 55"+  00:28:04 =36,810  km/h

144  Leigh Howard  IAM Cycling05h 00' 15"+  00:28:24 =36,769  km/h

145  Kristjan Koren  Cannondale Pro Cycling05h 00' 15"+  00:28:24 =36,769  km/h

146  Matteo Tosatto  Tinkoff05h 00' 15"+  00:28:24 =36,769  km/h

147  Bernhard Eisel  Dimension Data05h 00' 15"+  00:28:24 =36,769  km/h

148  Oscar Gatto  Tinkoff05h 00' 15"+  00:28:24 =36,769  km/h

149  Marcel Sieberg  Lotto Soudal05h 00' 15"+  00:28:24 =36,769  km/h

150  Roy Curvers  Giant-Alpecin05h 00' 15"+  00:28:24 =36,769  km/h

151  Jan Polanc  Lampre-Merida05h 00' 15"+  00:28:24 =36,769  km/h

152  Cesare Benedetti  Bora-Argon 1805h 00' 15"+  00:28:24 =36,769  km/h

153  Sondre Holst Enger  IAM Cycling05h 00' 15"+  00:28:24 =36,769  km/h

154  Nicolas Edet  Cofidis – Solutions Crédits05h 00' 15"+  00:28:24 =36,769  km/h

155  Andreas Schillinger  Bora-Argon 1805h 00' 15"+  00:28:24 =36,769  km/h

156  Robert Wagner  Lotto NL-Jumbo05h 00' 15"+  00:28:24 =36,769  km/h

157  Thibaut Pinot  FDJ05h 00' 15"+  00:28:24 =36,769  km/h

158  Simon Gerrans  ORICA BikeExchange05h 00' 15"+  00:28:24 =36,769  km/h

159  Samuel Dumoulin  AG2R La Mondiale05h 00' 15"+  00:28:24 =36,769  km/h

160  Edvald Boasson Hagen  Dimension Data05h 00' 15"+  00:28:24 =36,769  km/h

161  William  Bonnet  FDJ05h 00' 15"+  00:28:24 =36,769  km/h

162  Ramon Sinkeldam  Giant-Alpecin05h 00' 15"+  00:28:24 =36,769  km/h

163  Armindo Fonseca  Fortuneo-Vital Concept05h 00' 15"+  00:28:24 =36,769  km/h

164  Alexander Kristoff  Katusha05h 00' 15"+  00:28:24 =36,769  km/h

165  Natnael Berhane  Dimension Data05h 00' 15"+  00:28:24 =36,769  km/h

166  Michael Matthews  ORICA BikeExchange05h 00' 15"+  00:28:24 =36,769  km/h

167  Jürgen Roelandts  Lotto Soudal05h 00' 15"+  00:28:24 =36,769  km/h

168  Adrien Petit  Direct Energie05h 00' 15"+  00:28:24 =36,769  km/h

169  Vegard Breen  Fortuneo-Vital Concept05h 00' 15"+  00:28:24 =36,769  km/h

170  Maciej Bodnar  Tinkoff05h 00' 15"+  00:28:24 =36,769  km/h

171  Yohann Gène  Direct Energie05h 00' 15"+  00:28:24 =36,769  km/h

172  Jacopo Guarnieri  Katusha05h 00' 15"+  00:28:24 =36,769  km/h

173  Dylan Groenewegen  Lotto NL-Jumbo05h 00' 15"+  00:28:24 =36,769  km/h

174  Sam Bennett  Bora-Argon 1805h 00' 15"+  00:28:24 =36,769  km/h

175  Alex Howes  Cannondale Pro Cycling05h 00' 15"+  00:28:24 =36,769  km/h

176  Albert Timmer  Giant-Alpecin05h 00' 15"+  00:28:24 =36,769  km/h

177  Michael Albasini  ORICA BikeExchange05h 00' 15"+  00:28:24 =36,769  km/h

178  Daniel McLay  Fortuneo-Vital Concept05h 00' 15"+  00:28:24 =36,769  km/h

179  Simon Geschke  Giant-Alpecin05h 00' 15"+  00:28:24 =36,769  km/h

180  Lars Bak  Lotto Soudal05h 00' 15"+  00:28:24 =36,769  km/h

181  Maarten Wynants  Lotto NL-Jumbo05h 00' 15"+  00:28:24 =36,769  km/h

182  Ian Stannard  Sky Procycling05h 00' 15"+  00:28:24 =36,769  km/h

183  Yukiya  Arashiro  Lampre-Merida05h 00' 15"+  00:28:24 =36,769  km/h

184  Laurens Ten Dam  Giant-Alpecin05h 00' 15"+  00:28:24 =36,769  km/h

185  John Degenkolb  Giant-Alpecin05h 00' 15"+  00:28:24 =36,769  km/h

186  Fabio Sabatini  Etixx-Quick Step05h 01' 04"+  00:29:13 =36,670  km/h

187  Marcel Kittel  Etixx-Quick Step05h 01' 04"+  00:29:13 =36,670  km/h

188  Maximiliano Richeze  Etixx-Quick Step05h 01' 04"+  00:29:13 =36,670  km/h

189  Davide Cimolai  Lampre-Merida05h 01' 04"+  00:29:13 =36,670  km/h

190  Shane Archbold  Bora-Argon 1805h 01' 04"+  00:29:13 =36,670  km/h


Withdrawls: 2
 RiderTeamReason
147   Jurgen Van Den Broeck KatushaDid not start
178   Angelo Tulik Direct EnergieDid not finish
Todays birthdays.

1888 • Giuseppe Contesini
1911 • Edmond Pages
1935 • Eddy Pauwels
1940 • Julien Haelterman
1958 • Luc Colijn
1962 • Jean-François Bernard
1984 • Yann Huguet
1993 • Owain Doull

 

Optimized for Chrome - Edge
and Opera browsers.